createdAt,value
2023-05-20T00:00:27.342Z,11.06
2023-05-20T00:05:29.425Z,10.96
2023-05-20T00:10:31.392Z,10.87
2023-05-20T00:15:35.486Z,10.81
2023-05-20T00:20:38.016Z,10.78
2023-05-20T00:25:40.268Z,10.71
2023-05-20T00:30:44.210Z,10.70
2023-05-20T00:35:46.204Z,10.75
2023-05-20T00:40:48.230Z,10.72
2023-05-20T00:45:52.350Z,10.59
2023-05-20T00:50:54.625Z,10.52
2023-05-20T00:55:57.038Z,10.40
2023-05-20T01:01:00.583Z,10.42
2023-05-20T01:06:02.715Z,10.31
2023-05-20T01:11:09.042Z,10.20
2023-05-20T01:16:15.353Z,10.24
2023-05-20T01:21:17.632Z,10.25
2023-05-20T01:26:20.829Z,10.25
2023-05-20T01:31:26.085Z,10.20
2023-05-20T01:36:29.272Z,10.10
2023-05-20T01:41:33.710Z,10.18
2023-05-20T01:46:35.979Z,10.11
2023-05-20T01:51:38.223Z,10.02
2023-05-20T01:56:41.769Z,9.96
2023-05-20T02:01:43.923Z,10.09
2023-05-20T02:06:45.706Z,10.08
2023-05-20T02:11:49.180Z,10.16
2023-05-20T02:16:51.396Z,10.20
2023-05-20T02:21:53.799Z,10.32
2023-05-20T02:26:56.929Z,10.45
2023-05-20T02:31:58.748Z,10.56
2023-05-20T02:37:00.943Z,10.67
2023-05-20T02:42:04.280Z,10.79
2023-05-20T02:47:06.432Z,10.93
2023-05-20T02:52:08.663Z,10.92
2023-05-20T02:57:12.147Z,10.87
2023-05-20T03:02:14.147Z,10.94
2023-05-20T03:07:16.250Z,10.97
2023-05-20T03:12:19.577Z,11.04
2023-05-20T03:17:21.770Z,10.98
2023-05-20T03:22:24.109Z,11.05
2023-05-20T03:27:27.752Z,11.01
2023-05-20T03:32:30.026Z,10.96
2023-05-20T03:37:32.562Z,11.04
2023-05-20T03:42:36.553Z,11.09
2023-05-20T03:47:38.788Z,11.16
2023-05-20T03:52:41.126Z,11.12
2023-05-20T03:57:44.693Z,11.27
2023-05-20T04:02:46.624Z,11.27
2023-05-20T04:07:49.080Z,11.34
2023-05-20T04:12:53.189Z,11.36
2023-05-20T04:17:55.126Z,11.45
2023-05-20T04:22:57.669Z,11.46
2023-05-20T04:28:01.388Z,11.44
2023-05-20T04:33:03.600Z,11.54
2023-05-20T04:38:06.036Z,11.63
2023-05-20T04:43:09.413Z,11.61
2023-05-20T04:48:11.720Z,11.76
2023-05-20T04:53:13.532Z,11.74
2023-05-20T04:58:17.279Z,11.85
2023-05-20T05:03:19.900Z,11.92
2023-05-20T05:08:22.071Z,11.82
2023-05-20T05:13:26.338Z,11.86
2023-05-20T05:18:28.115Z,11.95
2023-05-20T05:23:31.012Z,12.02
2023-05-20T05:28:34.171Z,12.15
2023-05-20T05:33:35.971Z,12.10
2023-05-20T05:38:37.696Z,12.23
2023-05-20T05:43:40.762Z,12.23
2023-05-20T05:48:42.723Z,12.37
2023-05-20T05:53:44.986Z,12.44
2023-05-20T05:58:48.098Z,12.61
2023-05-20T06:03:49.969Z,12.73
2023-05-20T06:08:52.049Z,12.79
2023-05-20T06:13:55.564Z,12.75
2023-05-20T06:18:57.892Z,12.70
2023-05-20T06:24:00.632Z,12.73
2023-05-20T06:29:04.064Z,12.76
2023-05-20T06:34:05.905Z,12.87
2023-05-20T06:39:07.820Z,12.88
2023-05-20T06:44:10.912Z,13.01
2023-05-20T06:49:12.696Z,12.81
2023-05-20T06:54:14.475Z,12.88
2023-05-20T06:59:18.375Z,13.00
2023-05-20T07:04:20.548Z,13.09
2023-05-20T07:09:22.930Z,13.19
2023-05-20T07:14:26.137Z,13.42
2023-05-20T07:19:28.373Z,13.72
2023-05-20T07:24:30.599Z,13.95
2023-05-20T07:29:34.303Z,13.95
2023-05-20T07:34:36.412Z,13.81
2023-05-20T07:39:38.372Z,13.97
2023-05-20T07:44:42.004Z,14.61
2023-05-20T07:49:43.721Z,14.80
2023-05-20T07:54:45.882Z,14.61
2023-05-20T07:59:49.721Z,14.82
2023-05-20T08:04:52.012Z,14.80
2023-05-20T08:09:53.848Z,14.88
2023-05-20T08:14:57.220Z,15.18
2023-05-20T08:19:59.154Z,15.55
2023-05-20T08:25:01.485Z,15.90
2023-05-20T08:30:06.277Z,16.02
2023-05-20T08:35:08.588Z,16.27
2023-05-20T08:40:12.234Z,16.20
2023-05-20T08:45:19.211Z,16.15
2023-05-20T08:50:21.780Z,16.60
2023-05-20T08:55:25.972Z,16.01
2023-05-20T09:00:30.251Z,15.88
2023-05-20T09:05:32.464Z,15.67
2023-05-20T09:10:35.794Z,15.61
2023-05-20T09:15:39.915Z,16.05
2023-05-20T09:20:41.892Z,16.06
2023-05-20T09:25:43.822Z,15.77
2023-05-20T09:30:49.050Z,16.02
2023-05-20T09:35:51.200Z,16.08
2023-05-20T09:40:53.033Z,16.94
2023-05-20T09:45:56.358Z,17.44
2023-05-20T09:50:58.614Z,16.69
2023-05-20T09:56:00.814Z,16.81
2023-05-20T10:01:04.188Z,16.82
2023-05-20T10:06:21.935Z,16.91
2023-05-20T10:11:34.592Z,16.59
2023-05-20T10:16:54.143Z,17.19
2023-05-20T10:22:01.357Z,17.26
2023-05-20T10:27:05.009Z,17.62
2023-05-20T10:32:08.697Z,18.51
2023-05-20T10:37:23.345Z,18.25
2023-05-20T10:42:29.166Z,18.13
2023-05-20T10:47:32.672Z,18.37
2023-05-20T10:52:36.765Z,18.24
2023-05-20T10:57:38.596Z,18.33
2023-05-20T11:02:41.927Z,18.24
2023-05-20T11:07:44.225Z,18.38
2023-05-20T11:12:46.391Z,19.48
2023-05-20T11:17:57.354Z,20.30
2023-05-20T11:22:59.423Z,20.35
2023-05-20T11:28:01.802Z,20.78
2023-05-20T11:33:05.391Z,20.04
2023-05-20T11:38:07.234Z,20.04
2023-05-20T11:43:11.742Z,20.32
2023-05-20T11:48:15.459Z,20.50
2023-05-20T11:53:18.640Z,19.63
2023-05-20T11:58:22.510Z,18.39
2023-05-20T12:03:26.121Z,19.51
2023-05-20T12:08:28.182Z,19.65
2023-05-20T12:13:29.914Z,20.09
2023-05-20T12:18:33.117Z,19.66
2023-05-20T12:23:35.527Z,19.72
2023-05-20T12:28:37.578Z,19.02
2023-05-20T12:33:40.709Z,19.86
2023-05-20T12:38:43.069Z,20.69
2023-05-20T12:43:45.114Z,20.87
2023-05-20T12:55:25.570Z,21.06
2023-05-20T13:00:27.562Z,20.61
2023-05-20T13:05:29.669Z,19.52
2023-05-20T13:10:34.129Z,19.93
2023-05-20T13:15:36.060Z,20.15
2023-05-20T13:20:38.426Z,19.73
2023-05-20T13:25:41.726Z,20.24
2023-05-20T13:30:44.277Z,19.71
2023-05-20T13:35:46.074Z,20.55
2023-05-20T13:40:49.890Z,20.34
2023-05-20T13:45:52.311Z,19.83
2023-05-20T13:50:54.311Z,20.23
2023-05-20T13:55:58.124Z,19.91
2023-05-20T14:01:00.361Z,20.83
2023-05-20T14:06:02.860Z,21.16
2023-05-20T14:11:06.044Z,20.22
2023-05-20T14:16:08.373Z,20.74
2023-05-20T14:21:11.732Z,20.86
2023-05-20T14:26:14.929Z,21.20
2023-05-20T14:31:16.782Z,20.96
2023-05-20T14:36:18.517Z,21.20
2023-05-20T14:41:22.133Z,21.07
2023-05-20T14:46:24.001Z,21.12
2023-05-20T14:51:26.624Z,21.55
2023-05-20T14:56:29.846Z,21.53
2023-05-20T15:01:32.002Z,22.18
2023-05-20T15:06:34.006Z,21.08
2023-05-20T15:11:37.495Z,20.98
2023-05-20T15:16:39.270Z,21.38
2023-05-20T15:21:41.462Z,21.12
2023-05-20T15:26:44.946Z,21.50
2023-05-20T15:31:46.669Z,21.74
2023-05-20T15:36:48.405Z,21.57
2023-05-20T15:41:52.021Z,21.37
2023-05-20T15:46:53.795Z,22.00
2023-05-20T15:52:02.392Z,22.55
2023-05-20T15:57:06.991Z,22.48
2023-05-20T16:02:09.014Z,22.41
2023-05-20T16:07:10.780Z,21.79
2023-05-20T16:12:13.948Z,21.54
2023-05-20T16:17:15.797Z,21.16
2023-05-20T16:22:18.542Z,21.78
2023-05-20T16:27:22.353Z,21.48
2023-05-20T16:32:24.529Z,21.98
2023-05-20T16:37:26.583Z,21.07
2023-05-20T16:42:29.687Z,21.41
2023-05-20T16:47:31.784Z,20.83
2023-05-20T16:52:34.437Z,20.84
2023-05-20T16:57:38.025Z,20.95
2023-05-20T17:02:40.431Z,20.91
2023-05-20T17:07:42.256Z,20.79
2023-05-20T17:12:45.422Z,20.44
2023-05-20T17:17:47.154Z,20.36
2023-05-20T17:22:49.311Z,20.83
2023-05-20T17:27:52.398Z,20.89
2023-05-20T17:32:54.454Z,20.49
2023-05-20T17:37:56.708Z,20.12
2023-05-20T17:43:00.230Z,19.94
2023-05-20T17:48:02.060Z,19.84
2023-05-20T17:53:04.187Z,19.75
2023-05-20T17:58:07.723Z,19.78
2023-05-20T18:03:10.514Z,19.98
2023-05-20T18:08:12.804Z,19.85
2023-05-20T18:13:16.366Z,19.73
2023-05-20T18:18:18.641Z,19.46
2023-05-20T18:23:20.753Z,19.35
2023-05-20T18:28:24.385Z,19.28
2023-05-20T18:33:26.495Z,19.27
2023-05-20T18:38:28.643Z,19.14
2023-05-20T18:43:32.179Z,19.01
2023-05-20T18:48:33.994Z,18.88
2023-05-20T18:53:36.505Z,18.75
2023-05-20T18:58:40.091Z,18.73
2023-05-20T19:03:42.411Z,18.64
2023-05-20T19:08:44.373Z,18.59
2023-05-20T19:13:47.694Z,18.53
2023-05-20T19:18:49.717Z,18.44
2023-05-20T19:23:51.617Z,18.38
2023-05-20T19:28:55.105Z,18.38
2023-05-20T19:33:57.545Z,18.33
2023-05-20T19:38:59.283Z,18.20
2023-05-20T19:44:02.828Z,18.04
2023-05-20T19:49:05.050Z,18.11
2023-05-20T19:54:07.294Z,18.01
2023-05-20T19:59:10.663Z,17.93
2023-05-20T20:04:12.691Z,17.92
2023-05-20T20:09:15.081Z,17.82
2023-05-20T20:14:18.234Z,17.77
2023-05-20T20:19:20.030Z,17.62
2023-05-20T20:24:22.145Z,17.58
2023-05-20T20:29:25.833Z,17.32
2023-05-20T20:34:28.232Z,17.16
2023-05-20T20:39:29.953Z,17.04
2023-05-20T20:44:33.518Z,17.12
2023-05-20T20:49:35.471Z,16.92
2023-05-20T20:54:38.732Z,16.77
2023-05-20T20:59:43.252Z,16.57
2023-05-20T21:04:45.197Z,16.48
2023-05-20T21:09:47.265Z,16.46
2023-05-20T21:14:50.394Z,16.39
2023-05-20T21:19:52.488Z,16.31
2023-05-20T21:24:54.550Z,16.31
2023-05-20T21:29:58.243Z,16.32
2023-05-20T21:35:00.360Z,16.37
2023-05-20T21:40:02.511Z,16.41
2023-05-20T21:45:07.578Z,16.36
2023-05-20T21:50:10.715Z,16.31
2023-05-20T21:55:12.842Z,16.23
2023-05-20T22:00:17.009Z,16.30
2023-05-20T22:05:19.450Z,16.25
2023-05-20T22:10:23.351Z,16.31
2023-05-20T22:15:27.215Z,16.19
2023-05-20T22:20:29.727Z,16.07
2023-05-20T22:25:31.728Z,16.11
2023-05-20T22:30:35.633Z,16.16
2023-05-20T22:35:38.265Z,16.15
2023-05-20T22:40:40.192Z,16.04
2023-05-20T22:45:43.534Z,15.88
2023-05-20T22:50:45.741Z,15.82
2023-05-20T22:55:47.516Z,15.61
2023-05-20T23:00:51.239Z,15.63
2023-05-20T23:05:53.749Z,15.58
2023-05-20T23:10:56.334Z,15.51
2023-05-20T23:15:59.709Z,15.38
2023-05-20T23:21:01.864Z,15.38
2023-05-20T23:26:04.482Z,15.24
2023-05-20T23:31:08.185Z,15.32
2023-05-20T23:36:10.269Z,15.25
2023-05-20T23:41:12.389Z,15.20
2023-05-20T23:46:15.904Z,15.02
2023-05-20T23:51:17.736Z,14.93
2023-05-20T23:56:19.909Z,14.90
